createdAt,value
2022-08-12T00:00:20.774Z,40.25
2022-08-12T00:03:05.990Z,40.65
2022-08-12T00:06:04.181Z,41.00
2022-08-12T00:08:55.724Z,40.93
2022-08-12T00:11:42.454Z,40.85
2022-08-12T00:14:28.675Z,41.08
2022-08-12T00:17:14.080Z,41.18
2022-08-12T00:19:59.262Z,41.94
2022-08-12T00:22:44.239Z,41.75
2022-08-12T00:26:05.723Z,42.15
2022-08-12T00:28:34.719Z,42.36
2022-08-12T00:31:19.877Z,42.12
2022-08-12T00:34:05.401Z,42.57
2022-08-12T00:36:50.888Z,42.66
2022-08-12T00:39:36.517Z,42.67
2022-08-12T00:42:13.261Z,42.64
2022-08-12T00:44:44.531Z,42.65
2022-08-12T00:47:24.994Z,42.59
2022-08-12T00:49:54.828Z,43.05
2022-08-12T00:52:22.856Z,43.19
2022-08-12T00:54:54.149Z,43.09
2022-08-12T00:57:27.308Z,43.23
2022-08-12T01:00:00.529Z,43.33
2022-08-12T01:02:33.376Z,43.19
2022-08-12T01:05:24.590Z,43.46
2022-08-12T01:08:10.318Z,43.87
2022-08-12T01:10:59.635Z,44.13
2022-08-12T01:13:27.886Z,44.34
2022-08-12T01:15:57.330Z,44.42
2022-08-12T01:18:28.067Z,44.32
2022-08-12T01:21:17.629Z,44.30
2022-08-12T01:23:57.513Z,44.86
2022-08-12T01:26:25.283Z,44.90
2022-08-12T01:28:57.050Z,45.21
2022-08-12T01:31:27.284Z,45.29
2022-08-12T01:34:36.658Z,45.68
2022-08-12T01:36:57.712Z,45.83
2022-08-12T01:39:38.907Z,45.96
2022-08-12T01:42:26.694Z,45.98
2022-08-12T01:44:54.576Z,46.46
2022-08-12T01:47:49.597Z,46.87
2022-08-12T01:50:36.789Z,46.87
2022-08-12T01:53:11.273Z,47.16
2022-08-12T01:55:41.638Z,47.38
2022-08-12T01:58:21.741Z,47.38
2022-08-12T02:00:59.284Z,47.62
2022-08-12T02:04:00.044Z,47.48
2022-08-12T02:07:02.451Z,47.34
2022-08-12T02:10:01.463Z,46.97
2022-08-12T02:13:03.025Z,45.96
2022-08-12T02:15:52.855Z,45.81
2022-08-12T02:18:38.270Z,46.12
2022-08-12T02:21:22.665Z,45.90
2022-08-12T02:23:49.751Z,46.06
2022-08-12T02:26:17.690Z,46.61
2022-08-12T02:28:45.393Z,46.34
2022-08-12T02:31:12.846Z,46.50
2022-08-12T02:33:39.936Z,46.65
2022-08-12T02:36:06.750Z,46.88
2022-08-12T02:38:34.317Z,47.06
2022-08-12T02:41:04.079Z,46.63
2022-08-12T02:43:41.556Z,47.03
2022-08-12T02:46:14.561Z,46.47
2022-08-12T02:48:50.682Z,46.99
2022-08-12T02:51:24.527Z,47.09
2022-08-12T02:54:02.974Z,47.35
2022-08-12T02:56:33.073Z,47.49
2022-08-12T02:59:00.526Z,47.63
2022-08-12T03:01:34.928Z,48.25
2022-08-12T03:04:07.517Z,48.56
2022-08-12T03:06:53.471Z,49.17
2022-08-12T03:09:22.449Z,49.85
2022-08-12T03:12:00.206Z,50.35
2022-08-12T03:14:27.883Z,50.54
2022-08-12T03:17:09.515Z,50.83
2022-08-12T03:19:38.588Z,50.66
2022-08-12T03:22:26.423Z,50.81
2022-08-12T03:24:53.896Z,50.76
2022-08-12T03:27:20.579Z,50.97
2022-08-12T03:29:49.853Z,51.09
2022-08-12T03:32:36.177Z,51.36
2022-08-12T03:35:07.377Z,51.59
2022-08-12T03:37:35.579Z,51.95
2022-08-12T03:40:02.298Z,52.03
2022-08-12T03:42:41.483Z,51.96
2022-08-12T03:45:51.446Z,52.24
2022-08-12T03:48:38.786Z,52.68
2022-08-12T03:51:24.486Z,52.90
2022-08-12T03:54:11.585Z,52.67
2022-08-12T03:56:57.732Z,52.52
2022-08-12T03:59:43.031Z,52.95
2022-08-12T04:02:14.553Z,52.99
2022-08-12T04:04:45.169Z,52.95
2022-08-12T04:07:13.032Z,53.11
2022-08-12T04:09:41.673Z,53.09
2022-08-12T04:12:27.420Z,53.84
2022-08-12T04:15:00.492Z,54.02
2022-08-12T04:17:28.241Z,54.04
2022-08-12T04:19:56.586Z,54.41
2022-08-12T04:22:26.411Z,54.77
2022-08-12T04:24:53.904Z,54.86
2022-08-12T04:27:20.768Z,55.02
2022-08-12T04:30:16.786Z,55.04
2022-08-12T04:32:42.209Z,54.59
2022-08-12T04:35:11.227Z,54.29
2022-08-12T04:37:58.983Z,54.68
2022-08-12T04:40:28.535Z,54.79
2022-08-12T04:42:55.993Z,54.78
2022-08-12T04:45:22.937Z,55.14
2022-08-12T04:47:49.635Z,54.76
2022-08-12T04:50:34.399Z,54.56
2022-08-12T04:53:05.374Z,54.77
2022-08-12T04:55:33.569Z,54.65
2022-08-12T04:58:00.667Z,54.29
2022-08-12T05:00:27.689Z,54.69
2022-08-12T05:02:54.868Z,54.27
2022-08-12T05:05:24.267Z,54.30
2022-08-12T05:07:54.738Z,54.01
2022-08-12T05:10:33.549Z,54.07
2022-08-12T05:13:11.477Z,53.76
2022-08-12T05:15:53.033Z,53.45
2022-08-12T05:18:29.367Z,53.08
2022-08-12T05:20:59.049Z,53.31
2022-08-12T05:23:26.019Z,53.17
2022-08-12T05:25:56.423Z,53.10
2022-08-12T05:28:24.646Z,52.99
2022-08-12T05:30:51.829Z,52.78
2022-08-12T05:33:18.791Z,53.33
2022-08-12T05:35:47.706Z,53.19
2022-08-12T05:38:34.113Z,52.89
2022-08-12T05:41:02.508Z,52.79
2022-08-12T05:43:29.226Z,52.68
2022-08-12T05:45:56.114Z,52.44
2022-08-12T05:48:23.341Z,52.14
2022-08-12T05:50:50.061Z,51.74
2022-08-12T05:53:16.737Z,52.28
2022-08-12T05:55:43.392Z,52.48
2022-08-12T05:58:10.100Z,52.00
2022-08-12T06:00:37.183Z,51.74
2022-08-12T06:03:07.518Z,51.52
2022-08-12T06:05:43.982Z,51.11
